Albany, New York
Traffic Map
Current Weather Conditions
Albany, New York
Clear
Clear
66°
Feels Like: 66°
Wind Chill: 66° Ceiling: Unl
Heat Index: 66° Visibility: 10mi
Dew Point: 62° Wind: 3mph
Humidity: 87% Direction: 220° (SW)
Pressure: 30.03in Gusts: 0mph
Raw Report DataKALB 020751Z 22003KT 10SM CLR 19/17 A3003 RMK AO2 SLP166 T01890167
Traffic Incident Summary
Active as of:
Severity:
Category:
InformationThere was an issue retrieving the traffic information for this location. Please try a different location or try again shortly.
Advertisements
Track Severe Weather on mobile